Time;durP1;ratioP1;P1;durP2;ratioP2;P2;SDS_P1;SDS_P2;PMS_P1;PMS_P2;Temp;Humidity;BMP_temperature;BMP_pressure;BME280_temperature;BME280_humidity;BME280_pressure;Samples;Min_cycle;Max_cycle;Signal;HPM_P1;HPM_P2
2021/07/29 00:01:25;;;;;;;206.73;138.85;;;;;;;;;;4130497;34;20562;-85
2021/07/29 00:03:54;;;;;;;206.77;137.60;;;;;;;;;;4132006;34;20439;-85
2021/07/29 00:06:33;;;;;;;195.25;135.70;;;;;;;;;;4136580;34;20087;-85
2021/07/29 00:09:02;;;;;;;168.62;115.43;;;;;;;;;;4135167;34;20078;-85
2021/07/29 00:11:31;;;;;;;160.68;109.78;;;;;;;;;;4134054;34;20118;-85
2021/07/29 00:14:01;;;;;;;151.80;108.95;;;;;;;;;;4136794;34;20350;-85
2021/07/29 00:16:33;;;;;;;171.35;122.95;;;;;;;;;;4135944;34;20119;-85
2021/07/29 00:19:08;;;;;;;174.25;123.40;;;;;;;;;;4138192;34;20088;-84
2021/07/29 00:21:38;;;;;;;172.57;120.20;;;;;;;;;;4136874;34;20453;-85
2021/07/29 00:24:07;;;;;;;171.62;120.75;;;;;;;;;;4135871;34;20126;-84
2021/07/29 00:26:37;;;;;;;174.45;119.80;;;;;;;;;;4138681;34;20099;-84
2021/07/29 00:29:05;;;;;;;172.10;118.35;;;;;;;;;;4136887;34;20476;-85
2021/07/29 00:31:34;;;;;;;211.10;141.40;;;;;;;;;;4132370;34;20523;-86
2021/07/29 00:34:04;;;;;;;210.57;134.73;;;;;;;;;;4134170;34;20581;-85
2021/07/29 00:36:33;;;;;;;203.07;134.27;;;;;;;;;;4132775;34;20099;-85
2021/07/29 00:39:02;;;;;;;208.02;134.20;;;;;;;;;;4134764;34;20076;-85
2021/07/29 00:41:31;;;;;;;202.60;133.07;;;;;;;;;;4133816;34;20080;-86
2021/07/29 00:44:03;;;;;;;202.10;139.40;;;;;;;;;;4134571;34;20107;-85
2021/07/29 00:46:33;;;;;;;205.48;140.45;;;;;;;;;;4133385;34;20533;-85
2021/07/29 00:49:02;;;;;;;208.10;138.43;;;;;;;;;;4131759;34;20148;-85
2021/07/29 00:51:31;;;;;;;170.90;122.60;;;;;;;;;;4134084;34;20093;-85
2021/07/29 00:54:02;;;;;;;167.20;118.10;;;;;;;;;;4132635;34;20089;-85
2021/07/29 00:56:32;;;;;;;170.90;121.45;;;;;;;;;;4133535;34;20045;-85
2021/07/29 00:59:01;;;;;;;168.60;117.75;;;;;;;;;;4134855;34;20052;-85
2021/07/29 01:01:29;;;;;;;164.00;116.10;;;;;;;;;;4132787;34;20258;-85
2021/07/29 01:03:58;;;;;;;162.52;111.47;;;;;;;;;;4133890;34;20095;-85
2021/07/29 01:06:28;;;;;;;151.63;111.32;;;;;;;;;;4135531;34;20877;-85
2021/07/29 01:09:00;;;;;;;139.48;107.60;;;;;;;;;;4132443;34;20052;-86
2021/07/29 01:11:29;;;;;;;139.20;105.90;;;;;;;;;;4136975;34;20060;-85
2021/07/29 01:13:57;;;;;;;143.23;108.10;;;;;;;;;;4132781;34;20162;-86
2021/07/29 01:16:26;;;;;;;142.65;107.30;;;;;;;;;;4135858;34;20131;-85
2021/07/29 01:18:55;;;;;;;141.90;105.15;;;;;;;;;;4133415;34;20179;-85
2021/07/29 01:21:33;;;;;;;142.07;113.03;;;;;;;;;;4133207;34;20122;-85
2021/07/29 01:24:02;;;;;;;141.20;113.88;;;;;;;;;;4135481;34;20127;-84
2021/07/29 01:26:30;;;;;;;146.82;115.75;;;;;;;;;;4135155;34;20123;-85
2021/07/29 01:29:00;;;;;;;136.20;102.72;;;;;;;;;;4131374;34;20108;-85
2021/07/29 01:31:29;;;;;;;148.73;105.45;;;;;;;;;;4134947;34;20107;-85
2021/07/29 01:33:58;;;;;;;142.82;108.55;;;;;;;;;;4122478;34;20435;-85
2021/07/29 01:36:26;;;;;;;141.27;107.47;;;;;;;;;;4135016;34;20107;-85
2021/07/29 01:38:55;;;;;;;153.32;110.82;;;;;;;;;;4132960;34;20366;-85
2021/07/29 01:41:27;;;;;;;142.48;109.85;;;;;;;;;;4134782;34;20053;-84
2021/07/29 01:43:55;;;;;;;138.75;107.10;;;;;;;;;;4135223;34;20461;-85
2021/07/29 01:46:25;;;;;;;139.27;103.32;;;;;;;;;;4133483;34;20507;-85
2021/07/29 01:48:53;;;;;;;141.27;104.72;;;;;;;;;;4133626;34;20412;-85
2021/07/29 01:51:22;;;;;;;132.65;101.68;;;;;;;;;;4136144;34;20168;-85
2021/07/29 01:53:50;;;;;;;193.50;129.25;;;;;;;;;;4132251;34;20127;-85
2021/07/29 01:56:20;;;;;;;162.57;113.37;;;;;;;;;;4132904;34;20065;-85
2021/07/29 01:58:49;;;;;;;196.07;133.45;;;;;;;;;;4131937;34;20111;-85
2021/07/29 02:01:21;;;;;;;194.62;133.32;;;;;;;;;;4132152;34;20076;-85
2021/07/29 02:03:51;;;;;;;196.68;128.10;;;;;;;;;;4124654;34;20100;-85
2021/07/29 02:06:19;;;;;;;192.07;126.35;;;;;;;;;;4139301;34;20057;-85
2021/07/29 02:08:48;;;;;;;165.45;118.78;;;;;;;;;;4131850;34;20751;-85
2021/07/29 02:11:16;;;;;;;164.62;119.03;;;;;;;;;;4134914;34;20202;-85
2021/07/29 02:13:45;;;;;;;174.93;115.80;;;;;;;;;;4134119;34;20226;-85
2021/07/29 02:16:14;;;;;;;171.13;119.90;;;;;;;;;;4131086;34;20116;-85
2021/07/29 02:18:42;;;;;;;148.75;120.32;;;;;;;;;;4129928;34;20041;-86
2021/07/29 02:21:11;;;;;;;202.07;133.87;;;;;;;;;;4136108;34;20071;-85
2021/07/29 02:23:39;;;;;;;203.18;133.18;;;;;;;;;;4139802;34;20506;-85
2021/07/29 02:26:11;;;;;;;200.38;130.85;;;;;;;;;;4140658;34;20044;-85
2021/07/29 02:28:40;;;;;;;208.32;137.77;;;;;;;;;;4135248;34;20060;-85
2021/07/29 02:31:08;;;;;;;208.85;138.18;;;;;;;;;;4147259;34;20100;-85
2021/07/29 02:33:37;;;;;;;211.15;138.35;;;;;;;;;;4141591;34;20048;-85
2021/07/29 02:36:06;;;;;;;204.85;134.23;;;;;;;;;;4140104;34;20049;-85
2021/07/29 02:38:34;;;;;;;158.63;109.55;;;;;;;;;;4137412;34;21483;-86
2021/07/29 02:41:03;;;;;;;156.15;107.37;;;;;;;;;;4134451;34;20067;-85
2021/07/29 02:43:31;;;;;;;190.27;116.45;;;;;;;;;;4135647;34;20052;-85
2021/07/29 02:46:00;;;;;;;154.45;119.00;;;;;;;;;;4129456;34;20485;-85
2021/07/29 02:48:28;;;;;;;151.55;121.15;;;;;;;;;;4138138;34;20091;-85
2021/07/29 02:50:57;;;;;;;149.10;117.53;;;;;;;;;;4139500;34;20180;-86
2021/07/29 02:53:26;;;;;;;174.77;132.30;;;;;;;;;;4131508;34;20428;-85
2021/07/29 02:55:57;;;;;;;172.27;134.43;;;;;;;;;;4128334;34;20037;-85
2021/07/29 02:58:26;;;;;;;168.93;117.22;;;;;;;;;;4138629;34;20444;-85
2021/07/29 03:00:55;;;;;;;163.30;109.82;;;;;;;;;;4139832;34;20060;-85
2021/07/29 03:03:24;;;;;;;202.60;132.70;;;;;;;;;;4132165;34;20599;-85
2021/07/29 03:05:53;;;;;;;205.20;131.85;;;;;;;;;;4138629;34;20045;-85
2021/07/29 03:08:21;;;;;;;203.95;130.32;;;;;;;;;;4137456;34;20682;-85
2021/07/29 11:42:12;;;;;;;10.50;3.45;;;;;;;;;;4142814;34;20672;-84
2021/07/29 11:44:42;;;;;;;12.05;3.55;;;;;;;;;;4148066;34;20071;-84
2021/07/29 11:47:10;;;;;;;9.40;3.30;;;;;;;;;;4149704;34;20051;-84
2021/07/29 11:49:49;;;;;;;16.58;3.70;;;;;;;;;;4150433;34;20440;-84
2021/07/29 11:52:19;;;;;;;14.65;4.20;;;;;;;;;;4154223;34;20056;-84
2021/07/29 11:54:48;;;;;;;14.63;4.18;;;;;;;;;;4150202;34;20206;-84
2021/07/29 11:57:28;;;;;;;12.27;3.80;;;;;;;;;;4151150;34;20070;-86
2021/07/29 11:59:57;;;;;;;14.82;3.33;;;;;;;;;;4145151;34;20418;-83
2021/07/29 12:02:26;;;;;;;11.68;3.08;;;;;;;;;;4151488;34;20339;-84
2021/07/29 12:04:55;;;;;;;10.85;3.40;;;;;;;;;;4148837;34;20114;-84
2021/07/29 12:07:23;;;;;;;13.73;4.10;;;;;;;;;;4151041;34;20056;-84
2021/07/29 12:09:52;;;;;;;13.45;3.92;;;;;;;;;;4146903;34;20040;-84
2021/07/29 12:12:21;;;;;;;11.73;3.62;;;;;;;;;;4151895;34;20106;-84
2021/07/29 12:14:49;;;;;;;11.38;3.00;;;;;;;;;;4150815;34;20049;-84
2021/07/29 12:17:21;;;;;;;10.00;3.00;;;;;;;;;;4147187;34;20060;-85
2021/07/29 12:19:56;;;;;;;10.30;3.58;;;;;;;;;;4153114;34;20048;-84
2021/07/29 12:22:25;;;;;;;13.95;3.87;;;;;;;;;;4143348;34;20120;-84
2021/07/29 12:24:57;;;;;;;12.05;3.25;;;;;;;;;;4145865;34;20099;-84
2021/07/29 12:27:26;;;;;;;10.52;3.53;;;;;;;;;;4153605;34;20068;-84
2021/07/29 12:29:54;;;;;;;11.27;3.50;;;;;;;;;;4145212;34;20091;-85
2021/07/29 12:32:27;;;;;;;14.77;3.62;;;;;;;;;;4145447;34;20120;-85
2021/07/29 12:34:57;;;;;;;9.30;2.90;;;;;;;;;;4149042;34;20154;-85
2021/07/29 12:37:36;;;;;;;11.95;3.12;;;;;;;;;;4150193;34;20241;-85
2021/07/29 12:40:05;;;;;;;13.62;3.72;;;;;;;;;;4139028;34;20608;-84
2021/07/29 12:42:35;;;;;;;14.87;3.80;;;;;;;;;;4151398;34;20180;-87
2021/07/29 12:45:09;;;;;;;14.90;3.85;;;;;;;;;;4150361;34;20444;-85
2021/07/29 12:47:38;;;;;;;9.55;3.40;;;;;;;;;;4150548;34;20119;-84
2021/07/29 12:50:07;;;;;;;14.40;3.65;;;;;;;;;;4147784;34;20147;-86
2021/07/29 12:52:35;;;;;;;9.48;2.70;;;;;;;;;;4145842;34;20108;-84
2021/07/29 12:55:09;;;;;;;12.50;3.72;;;;;;;;;;4143441;34;20112;-84
2021/07/29 12:57:51;;;;;;;12.65;3.95;;;;;;;;;;4150322;34;20094;-85
2021/07/29 13:00:23;;;;;;;13.13;3.78;;;;;;;;;;4150579;34;20102;-84
2021/07/29 13:02:52;;;;;;;9.60;3.10;;;;;;;;;;4141426;34;20086;-84
2021/07/29 13:05:22;;;;;;;15.55;3.60;;;;;;;;;;4145577;34;20119;-83
2021/07/29 13:07:53;;;;;;;14.45;3.70;;;;;;;;;;4149939;34;20476;-84
2021/07/29 13:10:22;;;;;;;12.70;3.17;;;;;;;;;;4149087;34;20353;-84
2021/07/29 13:12:52;;;;;;;14.95;3.90;;;;;;;;;;4148606;34;20781;-84
2021/07/29 13:15:21;;;;;;;18.40;4.00;;;;;;;;;;4144860;34;20048;-84
2021/07/29 13:17:50;;;;;;;14.95;3.67;;;;;;;;;;4150819;34;20082;-85
2021/07/29 13:20:18;;;;;;;11.52;3.42;;;;;;;;;;4142161;34;20104;-84
2021/07/29 13:22:47;;;;;;;12.73;3.25;;;;;;;;;;4142600;34;20053;-84
2021/07/29 13:25:18;;;;;;;10.82;3.30;;;;;;;;;;4144992;34;20044;-84
2021/07/29 13:27:46;;;;;;;13.68;3.53;;;;;;;;;;4145867;34;20506;-84
2021/07/29 13:30:17;;;;;;;10.43;3.22;;;;;;;;;;4146708;34;20092;-84
2021/07/29 13:32:45;;;;;;;10.98;3.60;;;;;;;;;;4145778;34;20619;-84
2021/07/29 13:35:14;;;;;;;10.77;3.25;;;;;;;;;;4147205;34;20147;-84
2021/07/29 13:37:42;;;;;;;15.65;4.00;;;;;;;;;;4149115;34;20052;-84
2021/07/29 13:40:11;;;;;;;16.75;3.92;;;;;;;;;;4146867;34;20083;-84
2021/07/29 13:42:42;;;;;;;9.77;2.95;;;;;;;;;;4154642;34;20116;-84
2021/07/29 13:45:20;;;;;;;11.02;2.90;;;;;;;;;;4145700;34;20067;-84
2021/07/29 13:47:50;;;;;;;12.07;3.33;;;;;;;;;;4143794;34;20041;-84
2021/07/29 13:50:19;;;;;;;12.30;3.10;;;;;;;;;;4142348;34;20079;-84
2021/07/29 13:52:48;;;;;;;11.35;3.67;;;;;;;;;;4145172;34;20060;-84
2021/07/29 13:55:16;;;;;;;12.63;3.83;;;;;;;;;;4145802;34;20459;-84
2021/07/29 13:57:47;;;;;;;12.88;3.75;;;;;;;;;;4151003;34;20144;-85
2021/07/29 14:00:16;;;;;;;14.50;3.80;;;;;;;;;;4150056;34;20096;-84
2021/07/29 14:02:45;;;;;;;13.75;3.70;;;;;;;;;;4143809;34;20123;-85
2021/07/29 14:05:17;;;;;;;14.27;3.72;;;;;;;;;;4138560;34;20079;-84
2021/07/29 14:07:46;;;;;;;11.15;3.15;;;;;;;;;;4146902;34;20165;-85
2021/07/29 14:10:15;;;;;;;13.70;3.55;;;;;;;;;;4148476;34;20457;-85
2021/07/29 14:12:43;;;;;;;14.18;3.60;;;;;;;;;;4151550;34;20091;-85
2021/07/29 14:15:13;;;;;;;14.23;4.35;;;;;;;;;;4152620;34;20099;-85
2021/07/29 14:20:38;;;;;;;14.87;4.12;;;;;;;;;;4148553;34;20144;-84
2021/07/29 14:23:09;;;;;;;11.30;3.22;;;;;;;;;;4150710;34;20074;-85
2021/07/29 14:25:39;;;;;;;15.43;4.05;;;;;;;;;;4148451;34;20202;-84
2021/07/29 14:28:13;;;;;;;11.00;3.37;;;;;;;;;;4142753;34;20290;-84
2021/07/29 14:30:43;;;;;;;15.20;3.55;;;;;;;;;;4145617;34;20048;-84
2021/07/29 14:33:12;;;;;;;10.93;3.30;;;;;;;;;;4148966;34;20079;-84
2021/07/29 14:35:45;;;;;;;8.88;3.10;;;;;;;;;;4147695;34;20114;-85
2021/07/29 14:38:14;;;;;;;17.93;3.50;;;;;;;;;;4144841;34;20068;-85
2021/07/29 14:40:43;;;;;;;15.45;3.50;;;;;;;;;;4143006;34;20123;-84
2021/07/29 14:43:13;;;;;;;17.08;3.67;;;;;;;;;;4149836;34;20111;-85
2021/07/29 14:51:02;;;;;;;8.50;2.90;;;;;;;;;;4146440;34;20117;-84
2021/07/29 14:53:31;;;;;;;19.12;3.65;;;;;;;;;;4138916;34;20114;-84
2021/07/29 14:56:10;;;;;;;14.02;3.85;;;;;;;;;;4151743;34;20083;-84
2021/07/29 16:08:52;;;;;;;13.05;3.42;;;;;;;;;;4144546;34;20086;-84
2021/07/29 16:11:21;;;;;;;15.75;6.65;;;;;;;;;;4143448;34;20081;-85
2021/07/29 16:14:36;;;;;;;13.27;3.28;;;;;;;;;;4143386;34;20158;-85
2021/07/29 16:16:45;;;;;;;15.48;3.53;;;;;;;;;;4140193;34;20064;-84
2021/07/29 16:19:15;;;;;;;14.70;3.33;;;;;;;;;;4146249;34;20057;-84
2021/07/29 16:21:47;;;;;;;14.73;3.65;;;;;;;;;;4142811;34;20100;-84
2021/07/29 16:24:19;;;;;;;16.75;3.50;;;;;;;;;;4144950;34;20615;-85
2021/07/29 16:26:48;;;;;;;16.58;4.47;;;;;;;;;;4150233;34;20082;-85
2021/07/29 16:29:17;;;;;;;14.90;3.55;;;;;;;;;;4149308;34;20075;-84
2021/07/29 16:31:46;;;;;;;11.48;3.30;;;;;;;;;;4149726;34;20088;-84
2021/07/29 16:34:15;;;;;;;19.02;4.18;;;;;;;;;;4149435;34;20052;-84
2021/07/29 16:36:45;;;;;;;17.02;4.40;;;;;;;;;;4145898;34;20115;-85
2021/07/29 16:39:13;;;;;;;18.58;3.83;;;;;;;;;;4151765;34;20044;-84
2021/07/29 16:41:42;;;;;;;15.32;3.92;;;;;;;;;;4153773;34;20086;-84
2021/07/29 16:44:11;;;;;;;20.98;8.88;;;;;;;;;;4150067;34;20118;-85
2021/07/29 16:46:39;;;;;;;14.98;6.30;;;;;;;;;;4135903;34;20395;-84
2021/07/29 16:49:08;;;;;;;13.32;4.25;;;;;;;;;;4143923;34;20052;-84
2021/07/29 16:51:37;;;;;;;11.12;3.95;;;;;;;;;;4148183;34;20436;-84
2021/07/29 16:54:05;;;;;;;26.58;19.73;;;;;;;;;;4147043;34;20100;-84
2021/07/29 16:56:34;;;;;;;14.87;5.55;;;;;;;;;;4148064;34;20117;-84
2021/07/29 16:59:03;;;;;;;43.90;39.80;;;;;;;;;;4143138;34;20092;-84
2021/07/29 17:01:32;;;;;;;65.80;61.17;;;;;;;;;;4147074;34;20261;-84
2021/07/29 17:04:01;;;;;;;19.80;12.52;;;;;;;;;;4145215;34;21106;-84
2021/07/29 17:06:29;;;;;;;25.67;13.55;;;;;;;;;;4138617;34;20144;-84
2021/07/29 17:08:58;;;;;;;17.12;9.98;;;;;;;;;;4144448;34;20591;-84
2021/07/29 17:11:27;;;;;;;16.67;9.00;;;;;;;;;;4147427;34;20068;-83
2021/07/29 17:13:56;;;;;;;20.60;11.98;;;;;;;;;;4144121;34;20123;-83
2021/07/29 17:16:24;;;;;;;39.53;33.33;;;;;;;;;;4139109;34;20464;-84
2021/07/29 17:18:53;;;;;;;50.95;46.47;;;;;;;;;;4131026;34;20091;-84
2021/07/29 17:21:22;;;;;;;56.58;51.78;;;;;;;;;;4136964;34;20052;-84
2021/07/29 17:23:50;;;;;;;56.17;50.63;;;;;;;;;;4135075;34;20324;-84
2021/07/29 17:26:19;;;;;;;44.72;40.33;;;;;;;;;;4152939;34;20093;-83
2021/07/29 17:28:48;;;;;;;45.95;40.78;;;;;;;;;;4129483;34;20155;-84
2021/07/29 17:31:16;;;;;;;20.52;16.92;;;;;;;;;;4158261;34;20522;-85
2021/07/29 17:33:45;;;;;;;29.98;26.20;;;;;;;;;;4148654;34;20445;-84
2021/07/29 17:36:13;;;;;;;39.78;35.75;;;;;;;;;;4146066;34;20464;-84
2021/07/29 17:38:42;;;;;;;56.72;50.17;;;;;;;;;;4151037;34;20488;-83
2021/07/29 17:41:11;;;;;;;28.15;21.85;;;;;;;;;;4148415;34;20118;-83
2021/07/29 17:43:40;;;;;;;29.20;25.90;;;;;;;;;;4145088;34;20060;-84
2021/07/29 17:46:09;;;;;;;32.83;29.40;;;;;;;;;;4141547;34;20136;-84
2021/07/29 17:48:37;;;;;;;40.72;36.53;;;;;;;;;;4148563;34;20135;-83
2021/07/29 17:51:07;;;;;;;41.78;36.55;;;;;;;;;;4149079;34;20107;-84
2021/07/29 17:53:36;;;;;;;48.92;41.60;;;;;;;;;;4152767;34;20254;-83
2021/07/29 17:56:04;;;;;;;55.97;48.67;;;;;;;;;;4163279;34;20052;-83
2021/07/29 17:58:33;;;;;;;47.55;41.95;;;;;;;;;;4151311;34;20432;-84
2021/07/29 18:01:02;;;;;;;60.88;48.90;;;;;;;;;;4142536;34;20084;-84
2021/07/29 18:03:31;;;;;;;55.40;49.50;;;;;;;;;;4155601;34;20064;-83
2021/07/29 18:05:59;;;;;;;84.53;74.57;;;;;;;;;;4138595;34;20525;-84
2021/07/29 18:08:28;;;;;;;75.78;67.62;;;;;;;;;;4143716;34;20123;-84
2021/07/29 18:10:57;;;;;;;110.63;95.03;;;;;;;;;;4152149;34;20064;-83
2021/07/29 18:13:26;;;;;;;81.45;67.37;;;;;;;;;;4148830;34;20133;-83
2021/07/29 18:15:55;;;;;;;75.97;67.90;;;;;;;;;;4158785;34;20073;-83
2021/07/29 18:18:24;;;;;;;81.68;73.28;;;;;;;;;;4164033;34;20080;-83
2021/07/29 18:20:52;;;;;;;85.05;74.03;;;;;;;;;;4152765;34;20044;-84
2021/07/29 18:23:20;;;;;;;99.20;87.25;;;;;;;;;;4145978;34;20109;-83
2021/07/29 18:25:50;;;;;;;106.18;90.55;;;;;;;;;;4155284;34;20531;-84
2021/07/29 18:28:21;;;;;;;117.78;96.00;;;;;;;;;;4155125;34;20049;-82
2021/07/29 18:30:50;;;;;;;138.05;105.82;;;;;;;;;;4147271;34;20072;-83
2021/07/29 18:33:19;;;;;;;149.38;111.95;;;;;;;;;;4147725;34;20138;-83
2021/07/29 18:35:47;;;;;;;147.52;125.75;;;;;;;;;;4143773;34;20384;-83
2021/07/29 18:38:16;;;;;;;211.32;128.77;;;;;;;;;;4130781;34;20124;-83
2021/07/29 18:40:45;;;;;;;209.20;124.55;;;;;;;;;;4140583;34;20075;-83
2021/07/29 18:43:13;;;;;;;199.45;123.40;;;;;;;;;;4139253;34;20072;-82
2021/07/29 18:45:45;;;;;;;222.63;145.02;;;;;;;;;;4141089;34;20068;-82
2021/07/29 18:48:13;;;;;;;293.67;179.98;;;;;;;;;;4137984;34;20084;-83
2021/07/29 18:50:42;;;;;;;294.20;181.43;;;;;;;;;;4142784;34;20070;-84
2021/07/29 18:53:11;;;;;;;289.95;181.75;;;;;;;;;;4146014;34;20071;-84
2021/07/29 18:55:39;;;;;;;290.55;186.00;;;;;;;;;;4126744;34;20696;-84
2021/07/29 18:58:09;;;;;;;232.82;156.18;;;;;;;;;;4141534;34;20109;-83
2021/07/29 19:00:37;;;;;;;240.93;156.30;;;;;;;;;;4142141;34;20491;-84
2021/07/29 19:03:07;;;;;;;260.20;180.73;;;;;;;;;;4143562;34;20167;-83
2021/07/29 19:05:40;;;;;;;253.52;161.30;;;;;;;;;;4141482;34;20056;-83
2021/07/29 19:08:08;;;;;;;241.55;155.32;;;;;;;;;;4139755;34;20052;-84
2021/07/29 19:10:37;;;;;;;248.93;156.50;;;;;;;;;;4148077;34;20115;-83
2021/07/29 19:13:06;;;;;;;228.32;177.85;;;;;;;;;;4150046;34;20088;-83
2021/07/29 19:15:34;;;;;;;199.73;143.40;;;;;;;;;;4147579;34;20048;-84
2021/07/29 19:18:06;;;;;;;209.32;146.85;;;;;;;;;;4160401;34;20166;-83
2021/07/29 19:20:34;;;;;;;227.25;149.43;;;;;;;;;;4149738;34;20717;-84
2021/07/29 19:23:05;;;;;;;277.27;181.40;;;;;;;;;;4125449;34;20472;-84
2021/07/29 19:25:34;;;;;;;282.08;181.40;;;;;;;;;;4144223;34;20086;-83
2021/07/29 19:28:03;;;;;;;278.35;175.57;;;;;;;;;;4143050;34;20448;-84
2021/07/29 19:30:31;;;;;;;264.00;170.35;;;;;;;;;;4141059;34;20036;-84
2021/07/29 19:33:00;;;;;;;266.83;174.00;;;;;;;;;;4147985;34;20076;-83
2021/07/29 19:35:28;;;;;;;267.40;174.85;;;;;;;;;;4145427;34;20165;-83
2021/07/29 19:37:57;;;;;;;222.73;147.05;;;;;;;;;;4152911;34;20076;-83
2021/07/29 19:40:31;;;;;;;227.10;146.75;;;;;;;;;;4142588;34;20044;-83
2021/07/29 19:42:59;;;;;;;233.77;154.85;;;;;;;;;;4143868;34;20450;-83
2021/07/29 19:45:28;;;;;;;229.07;168.15;;;;;;;;;;4146591;34;20103;-83
2021/07/29 19:47:58;;;;;;;232.12;149.07;;;;;;;;;;4151626;34;20198;-83
2021/07/29 19:50:26;;;;;;;187.40;141.73;;;;;;;;;;4149138;34;20574;-83
2021/07/29 19:52:55;;;;;;;232.85;150.32;;;;;;;;;;4144121;34;20127;-83
2021/07/29 19:55:23;;;;;;;270.70;175.07;;;;;;;;;;4151552;34;20079;-83
2021/07/29 19:57:52;;;;;;;270.15;174.52;;;;;;;;;;4146713;34;20040;-83
2021/07/29 20:00:21;;;;;;;269.20;161.60;;;;;;;;;;4143329;34;20056;-83
2021/07/29 20:02:49;;;;;;;223.65;132.00;;;;;;;;;;4139948;34;20161;-85
2021/07/29 20:05:18;;;;;;;222.40;133.15;;;;;;;;;;4134974;34;20048;-86
2021/07/29 20:07:46;;;;;;;230.35;144.37;;;;;;;;;;4148037;34;20114;-86
2021/07/29 20:10:15;;;;;;;213.95;130.37;;;;;;;;;;4144210;34;20083;-86
2021/07/29 20:12:44;;;;;;;255.27;154.93;;;;;;;;;;4147164;34;20084;-83
2021/07/29 20:15:18;;;;;;;203.62;139.57;;;;;;;;;;4148981;34;20604;-83
2021/07/29 20:17:46;;;;;;;208.02;141.40;;;;;;;;;;4144607;34;20200;-83
2021/07/29 20:20:14;;;;;;;209.05;141.70;;;;;;;;;;4141501;34;20143;-84
2021/07/29 20:22:44;;;;;;;229.15;140.55;;;;;;;;;;4149860;34;20103;-84
2021/07/29 20:25:13;;;;;;;195.80;140.95;;;;;;;;;;4149019;34;20172;-83
2021/07/29 20:27:41;;;;;;;255.98;151.45;;;;;;;;;;4148740;34;20494;-84
2021/07/29 20:30:10;;;;;;;247.02;149.30;;;;;;;;;;4149118;34;20096;-84
2021/07/29 20:32:38;;;;;;;250.87;149.75;;;;;;;;;;4147898;34;20107;-83
2021/07/29 20:35:07;;;;;;;248.75;151.25;;;;;;;;;;4147879;34;20091;-84
2021/07/29 20:37:37;;;;;;;253.00;153.40;;;;;;;;;;4149227;34;20147;-83
2021/07/29 20:40:06;;;;;;;247.65;143.55;;;;;;;;;;4144212;34;20436;-84
2021/07/29 20:42:34;;;;;;;257.83;149.50;;;;;;;;;;4146745;34;20588;-84
2021/07/29 20:45:10;;;;;;;219.70;134.35;;;;;;;;;;4136219;34;20116;-84
2021/07/29 20:47:39;;;;;;;229.65;143.32;;;;;;;;;;4141396;34;20177;-84
2021/07/29 20:50:14;;;;;;;242.32;158.18;;;;;;;;;;4137309;34;20107;-83
2021/07/29 20:52:45;;;;;;;216.70;136.85;;;;;;;;;;4141909;34;20130;-84
2021/07/29 20:55:14;;;;;;;201.18;136.07;;;;;;;;;;4140926;34;20548;-84
2021/07/29 20:57:43;;;;;;;229.80;156.20;;;;;;;;;;4145977;34;20115;-84
2021/07/29 21:00:15;;;;;;;209.95;147.07;;;;;;;;;;4140616;34;20052;-83
2021/07/29 21:02:44;;;;;;;260.23;166.68;;;;;;;;;;4145417;34;20138;-84
2021/07/29 21:05:21;;;;;;;223.70;147.32;;;;;;;;;;4146810;34;20057;-84
2021/07/29 21:07:51;;;;;;;222.27;142.62;;;;;;;;;;4147055;34;20107;-84
2021/07/29 21:10:20;;;;;;;219.15;141.75;;;;;;;;;;4133126;34;20508;-84
2021/07/29 21:12:49;;;;;;;268.05;167.05;;;;;;;;;;4145508;34;20708;-84
2021/07/29 21:15:18;;;;;;;261.80;167.65;;;;;;;;;;4143440;34;20479;-84
2021/07/29 21:17:49;;;;;;;268.58;174.62;;;;;;;;;;4146919;34;20360;-84
2021/07/29 21:20:17;;;;;;;266.52;177.82;;;;;;;;;;4149077;34;20114;-84
2021/07/29 21:22:46;;;;;;;230.73;153.15;;;;;;;;;;4151367;34;20311;-84
2021/07/29 21:25:15;;;;;;;221.55;148.70;;;;;;;;;;4149655;34;20115;-83
2021/07/29 21:27:43;;;;;;;228.15;156.05;;;;;;;;;;4150861;34;20060;-84
2021/07/29 21:30:12;;;;;;;228.65;154.70;;;;;;;;;;4149697;34;20052;-84
2021/07/29 21:32:40;;;;;;;228.40;152.00;;;;;;;;;;4150325;34;20079;-83
2021/07/29 21:35:09;;;;;;;225.98;149.35;;;;;;;;;;4147312;34;20127;-84
2021/07/29 21:37:38;;;;;;;224.55;150.23;;;;;;;;;;4150970;34;20076;-84
2021/07/29 21:40:07;;;;;;;251.93;161.98;;;;;;;;;;4147888;34;20423;-84
2021/07/29 21:42:35;;;;;;;246.75;157.98;;;;;;;;;;4151111;34;20064;-84
2021/07/29 21:45:04;;;;;;;250.07;148.43;;;;;;;;;;4148473;34;20128;-85
2021/07/29 21:47:32;;;;;;;259.40;153.62;;;;;;;;;;4152048;34;20136;-84
2021/07/29 21:50:01;;;;;;;252.23;160.27;;;;;;;;;;4130060;34;20087;-85
2021/07/29 21:52:31;;;;;;;251.27;161.45;;;;;;;;;;4148812;34;20052;-83
2021/07/29 21:55:00;;;;;;;245.25;150.12;;;;;;;;;;4149294;34;20141;-84
2021/07/29 21:57:29;;;;;;;243.30;152.35;;;;;;;;;;4149425;34;20087;-84
2021/07/29 21:59:58;;;;;;;247.80;153.18;;;;;;;;;;4150321;34;20172;-84
2021/07/29 22:02:27;;;;;;;246.20;154.30;;;;;;;;;;4151957;34;20504;-84
2021/07/29 22:04:57;;;;;;;200.62;145.98;;;;;;;;;;4150745;34;20125;-85
2021/07/29 22:07:25;;;;;;;215.07;144.87;;;;;;;;;;4144526;34;20167;-85
2021/07/29 22:09:54;;;;;;;222.73;146.23;;;;;;;;;;4150361;34;20052;-85
2021/07/29 22:12:22;;;;;;;220.80;145.57;;;;;;;;;;4151390;34;20633;-85
2021/07/29 22:14:51;;;;;;;217.55;147.50;;;;;;;;;;4148367;34;20056;-84
2021/07/29 22:17:19;;;;;;;207.77;141.05;;;;;;;;;;4151538;34;20154;-85
2021/07/29 22:19:48;;;;;;;244.07;156.90;;;;;;;;;;4148566;34;20067;-85
2021/07/29 22:22:18;;;;;;;246.30;161.35;;;;;;;;;;4147668;34;20683;-85
2021/07/29 22:24:46;;;;;;;247.15;151.87;;;;;;;;;;4146581;34;20117;-85
2021/07/29 22:27:15;;;;;;;246.40;154.07;;;;;;;;;;4143267;34;20068;-85
2021/07/29 22:29:44;;;;;;;209.05;138.10;;;;;;;;;;4144623;34;20376;-85
2021/07/29 22:32:12;;;;;;;204.95;137.62;;;;;;;;;;4150850;34;20522;-85
2021/07/29 22:34:41;;;;;;;216.27;140.62;;;;;;;;;;4147196;34;20115;-85
2021/07/29 22:37:09;;;;;;;212.25;139.45;;;;;;;;;;4146018;34;20079;-85
2021/07/29 22:39:38;;;;;;;213.45;137.55;;;;;;;;;;4149130;34;20142;-85
2021/07/29 22:42:07;;;;;;;195.25;136.93;;;;;;;;;;4150750;34;20356;-84
2021/07/29 22:44:35;;;;;;;188.82;134.70;;;;;;;;;;4129432;34;20957;-84
2021/07/29 22:47:04;;;;;;;188.37;135.95;;;;;;;;;;4148428;34;20124;-84
2021/07/29 22:49:33;;;;;;;193.30;138.43;;;;;;;;;;4151784;34;20049;-84
2021/07/29 22:52:21;;;;;;;212.85;138.45;;;;;;;;;;4151628;34;20183;-84
2021/07/29 22:54:50;;;;;;;207.37;136.18;;;;;;;;;;4135417;34;20052;-84
2021/07/29 22:57:19;;;;;;;206.65;136.88;;;;;;;;;;4148867;34;20463;-84
2021/07/29 22:59:47;;;;;;;209.37;136.50;;;;;;;;;;4144091;34;20051;-83
2021/07/29 23:02:17;;;;;;;252.27;163.05;;;;;;;;;;4146433;34;20082;-84
2021/07/29 23:04:46;;;;;;;256.23;166.25;;;;;;;;;;4146912;34;20545;-83
2021/07/29 23:07:14;;;;;;;218.63;135.10;;;;;;;;;;4150045;34;20052;-83
2021/07/29 23:09:43;;;;;;;207.15;133.63;;;;;;;;;;4137117;34;20048;-83
2021/07/29 23:12:11;;;;;;;208.68;143.40;;;;;;;;;;4144785;34;20059;-84
2021/07/29 23:14:40;;;;;;;225.62;136.75;;;;;;;;;;4142634;34;20409;-84
2021/07/29 23:17:09;;;;;;;217.25;139.27;;;;;;;;;;4143089;34;20398;-83
2021/07/29 23:19:38;;;;;;;207.00;148.10;;;;;;;;;;4143993;34;20072;-84
2021/07/29 23:22:06;;;;;;;209.90;148.20;;;;;;;;;;4144978;34;20044;-84
2021/07/29 23:24:41;;;;;;;211.12;147.75;;;;;;;;;;4143450;34;20134;-84
2021/07/29 23:29:57;;;;;;;208.55;148.05;;;;;;;;;;4142273;34;20104;-84
2021/07/29 23:32:47;;;;;;;258.48;172.40;;;;;;;;;;4134790;34;20428;-83
2021/07/29 23:35:16;;;;;;;215.48;145.50;;;;;;;;;;4143997;34;20071;-84
2021/07/29 23:37:44;;;;;;;224.10;143.77;;;;;;;;;;4144123;34;20044;-83
2021/07/29 23:40:13;;;;;;;219.93;143.75;;;;;;;;;;4147327;34;20056;-84
2021/07/29 23:42:42;;;;;;;230.57;146.02;;;;;;;;;;4147857;34;20490;-83
2021/07/29 23:45:11;;;;;;;240.95;153.73;;;;;;;;;;4144821;34;20118;-83
2021/07/29 23:47:39;;;;;;;244.23;139.95;;;;;;;;;;4147938;34;20460;-84
2021/07/29 23:50:08;;;;;;;254.82;163.10;;;;;;;;;;4144349;34;20529;-84
2021/07/29 23:52:36;;;;;;;268.67;174.85;;;;;;;;;;4152998;34;20102;-84
2021/07/29 23:55:05;;;;;;;252.48;159.10;;;;;;;;;;4151395;34;20052;-84
2021/07/29 23:57:34;;;;;;;267.75;185.45;;;;;;;;;;4154866;34;20048;-84
